createdAt,value
2023-11-23T00:00:07.224Z,13.07
2023-11-23T00:02:34.197Z,14.53
2023-11-23T00:05:00.915Z,14.17
2023-11-23T00:07:27.610Z,13.03
2023-11-23T00:09:54.677Z,14.20
2023-11-23T00:12:21.437Z,13.57
2023-11-23T00:14:48.168Z,14.20
2023-11-23T00:17:16.511Z,14.20
2023-11-23T00:19:43.200Z,14.43
2023-11-23T00:22:10.054Z,13.77
2023-11-23T00:24:36.836Z,14.00
2023-11-23T00:27:04.546Z,13.67
2023-11-23T00:29:31.393Z,14.63
2023-11-23T00:32:01.025Z,14.37
2023-11-23T00:34:27.890Z,14.93
2023-11-23T00:36:54.705Z,14.27
2023-11-23T00:39:21.679Z,13.87
2023-11-23T00:41:48.428Z,14.37
2023-11-23T00:44:15.180Z,15.63
2023-11-23T00:46:41.949Z,15.60
2023-11-23T00:49:09.732Z,16.23
2023-11-23T00:51:37.948Z,15.43
2023-11-23T00:54:07.826Z,16.53
2023-11-23T00:56:34.551Z,15.27
2023-11-23T00:59:01.246Z,15.70
2023-11-23T01:01:29.163Z,15.97
2023-11-23T01:03:56.583Z,15.50
2023-11-23T01:06:23.397Z,16.00
2023-11-23T01:08:50.106Z,16.03
2023-11-23T01:11:17.545Z,15.73
2023-11-23T01:13:44.312Z,15.47
2023-11-23T01:16:11.188Z,16.43
2023-11-23T01:18:39.098Z,15.03
2023-11-23T01:21:06.078Z,15.37
2023-11-23T01:23:32.924Z,17.30
2023-11-23T01:26:00.136Z,16.00
2023-11-23T01:28:27.056Z,16.20
2023-11-23T01:30:53.815Z,17.30
2023-11-23T01:33:20.948Z,16.70
2023-11-23T01:35:47.777Z,16.37
2023-11-23T01:38:14.994Z,16.73
2023-11-23T01:40:41.701Z,17.03
2023-11-23T01:43:12.094Z,16.83
2023-11-23T01:45:39.482Z,17.00
2023-11-23T01:48:07.288Z,16.20
2023-11-23T01:50:35.328Z,16.90
2023-11-23T01:53:04.586Z,16.83
2023-11-23T01:55:31.930Z,16.53
2023-11-23T01:58:01.007Z,16.50
2023-11-23T02:00:28.756Z,17.47
2023-11-23T02:02:56.179Z,15.73
2023-11-23T02:05:26.009Z,17.17
2023-11-23T02:07:52.851Z,17.90
2023-11-23T02:10:20.172Z,17.63
2023-11-23T02:12:53.776Z,17.03
2023-11-23T02:15:20.642Z,18.37
2023-11-23T02:17:47.973Z,17.73
2023-11-23T02:20:15.064Z,18.30
2023-11-23T02:22:41.884Z,18.47
2023-11-23T02:25:08.826Z,17.63
2023-11-23T02:27:36.617Z,17.50
2023-11-23T02:30:04.556Z,17.20
2023-11-23T02:32:31.316Z,17.17
2023-11-23T02:34:58.031Z,18.53
2023-11-23T02:37:24.779Z,17.33
2023-11-23T02:39:51.502Z,16.40
2023-11-23T02:42:18.256Z,17.93
2023-11-23T02:44:45.039Z,16.70
2023-11-23T02:47:11.763Z,17.87
2023-11-23T02:49:38.453Z,17.30
2023-11-23T02:52:05.278Z,18.63
2023-11-23T02:54:32.273Z,17.93
2023-11-23T02:56:59.024Z,19.27
2023-11-23T02:59:25.741Z,18.23
2023-11-23T03:01:52.574Z,18.57
2023-11-23T03:04:19.995Z,18.37
2023-11-23T03:06:47.137Z,18.40
2023-11-23T03:09:14.131Z,17.13
2023-11-23T03:11:41.620Z,18.03
2023-11-23T03:14:09.600Z,18.67
2023-11-23T03:16:36.485Z,19.43
2023-11-23T03:19:03.315Z,18.60
2023-11-23T03:21:30.452Z,19.40
2023-11-23T03:23:57.334Z,19.23
2023-11-23T03:26:24.211Z,18.00
2023-11-23T03:28:50.990Z,18.53
2023-11-23T03:31:17.706Z,19.00
2023-11-23T03:33:44.908Z,19.17
2023-11-23T03:36:11.653Z,19.83
2023-11-23T03:38:38.643Z,21.37
2023-11-23T03:41:05.682Z,19.87
2023-11-23T03:43:32.496Z,19.70
2023-11-23T03:45:59.235Z,19.20
2023-11-23T03:48:26.893Z,17.20
2023-11-23T03:50:53.716Z,17.77
2023-11-23T03:53:20.873Z,18.73
2023-11-23T03:55:47.524Z,17.63
2023-11-23T03:58:15.472Z,18.80
2023-11-23T04:00:42.170Z,18.37
2023-11-23T04:03:09.342Z,19.20
2023-11-23T04:05:36.041Z,18.77
2023-11-23T04:08:02.937Z,18.97
2023-11-23T04:10:29.618Z,19.73
2023-11-23T04:12:56.282Z,19.07
2023-11-23T04:15:23.109Z,18.70
2023-11-23T04:17:49.864Z,19.73
2023-11-23T04:20:16.946Z,21.27
2023-11-23T04:22:43.705Z,21.37
2023-11-23T04:25:10.601Z,21.53
2023-11-23T04:27:37.323Z,23.07
2023-11-23T04:30:05.615Z,21.17
2023-11-23T04:32:34.103Z,22.50
2023-11-23T04:35:01.146Z,20.50
2023-11-23T04:37:27.830Z,22.60
2023-11-23T04:39:54.858Z,22.93
2023-11-23T04:42:21.571Z,23.33
2023-11-23T04:44:48.343Z,22.63
2023-11-23T04:47:15.079Z,24.67
2023-11-23T04:49:41.813Z,25.27
2023-11-23T04:52:08.484Z,26.23
2023-11-23T04:54:35.741Z,23.87
2023-11-23T04:57:02.495Z,23.33
2023-11-23T04:59:29.174Z,26.30
2023-11-23T05:01:57.628Z,25.87
2023-11-23T05:04:25.180Z,25.47
2023-11-23T05:06:52.525Z,26.47
2023-11-23T05:09:19.223Z,26.80
2023-11-23T05:11:46.197Z,27.43
2023-11-23T05:14:12.988Z,27.33
2023-11-23T05:16:39.809Z,28.03
2023-11-23T05:19:06.509Z,27.70
2023-11-23T05:21:33.795Z,28.03
2023-11-23T05:24:02.745Z,27.57
2023-11-23T05:26:31.186Z,27.63
2023-11-23T05:28:57.882Z,27.50
2023-11-23T05:31:24.653Z,28.33
2023-11-23T05:33:51.391Z,27.77
2023-11-23T05:36:18.612Z,27.37
2023-11-23T05:38:45.315Z,28.33
2023-11-23T05:41:12.267Z,28.43
2023-11-23T05:43:38.963Z,27.63
2023-11-23T05:46:05.792Z,27.30
2023-11-23T05:48:32.493Z,27.07
2023-11-23T05:50:59.364Z,27.03
2023-11-23T05:53:26.046Z,28.40
2023-11-23T05:55:52.738Z,26.30
2023-11-23T05:58:19.428Z,27.43
2023-11-23T06:00:48.621Z,26.60
2023-11-23T06:03:17.064Z,28.00
2023-11-23T06:05:43.831Z,27.03
2023-11-23T06:08:10.556Z,28.13
2023-11-23T06:10:38.475Z,26.27
2023-11-23T06:13:05.285Z,26.23
2023-11-23T06:15:32.073Z,26.73
2023-11-23T06:18:07.382Z,26.73
2023-11-23T06:20:40.555Z,28.90
2023-11-23T06:23:07.273Z,27.93
2023-11-23T06:25:33.917Z,26.30
2023-11-23T06:28:12.426Z,27.17
2023-11-23T06:30:44.193Z,26.30
2023-11-23T06:33:11.197Z,27.27
2023-11-23T06:35:38.369Z,25.70
2023-11-23T06:38:05.714Z,25.57
2023-11-23T06:40:35.646Z,26.63
2023-11-23T06:43:04.197Z,27.50
2023-11-23T06:45:31.180Z,32.80
2023-11-23T06:47:59.380Z,28.07
2023-11-23T06:50:26.437Z,27.57
2023-11-23T06:52:53.617Z,28.50
2023-11-23T06:55:20.356Z,27.60
2023-11-23T06:57:50.406Z,28.40
2023-11-23T07:00:24.641Z,27.50
2023-11-23T07:02:52.035Z,25.73
2023-11-23T07:05:21.542Z,29.00
2023-11-23T07:07:48.604Z,28.80
2023-11-23T07:10:19.324Z,27.97
2023-11-23T07:12:47.623Z,25.77
2023-11-23T07:15:15.225Z,26.23
2023-11-23T07:17:43.915Z,26.10
2023-11-23T07:20:14.290Z,25.40
2023-11-23T07:22:41.077Z,25.60
2023-11-23T07:25:11.759Z,25.77
2023-11-23T07:27:39.172Z,25.50
2023-11-23T07:30:09.980Z,23.30
2023-11-23T07:32:37.252Z,23.40
2023-11-23T07:35:05.986Z,24.60
2023-11-23T07:37:34.785Z,27.07
2023-11-23T07:40:06.598Z,22.43
2023-11-23T07:42:33.521Z,25.50
2023-11-23T07:45:00.485Z,24.33
2023-11-23T07:47:27.237Z,21.20
2023-11-23T07:49:55.597Z,22.93
2023-11-23T07:52:23.107Z,22.57
2023-11-23T07:54:49.941Z,22.10
2023-11-23T07:57:16.739Z,20.17
2023-11-23T07:59:46.909Z,20.63
2023-11-23T08:02:13.711Z,20.73
2023-11-23T08:04:40.517Z,20.87
2023-11-23T08:07:07.342Z,19.67
2023-11-23T08:09:34.094Z,20.63
2023-11-23T08:12:00.821Z,20.17
2023-11-23T08:14:27.516Z,19.13
2023-11-23T08:16:55.977Z,19.73
2023-11-23T08:19:26.517Z,18.90
2023-11-23T08:21:53.568Z,18.97
2023-11-23T08:24:20.410Z,18.50
2023-11-23T08:26:47.141Z,17.17
2023-11-23T08:29:13.794Z,18.77
2023-11-23T08:31:42.251Z,18.20
2023-11-23T08:34:09.407Z,17.50
2023-11-23T08:36:37.336Z,17.00
2023-11-23T08:39:04.964Z,16.97
2023-11-23T08:41:31.858Z,16.77
2023-11-23T08:44:00.049Z,18.17
2023-11-23T08:46:26.949Z,15.87
2023-11-23T08:48:55.176Z,15.90
2023-11-23T08:51:22.136Z,17.33
2023-11-23T08:53:49.678Z,15.13
2023-11-23T08:56:17.438Z,15.80
2023-11-23T08:58:44.375Z,14.93
2023-11-23T09:01:11.641Z,14.30
2023-11-23T09:03:38.837Z,14.00
2023-11-23T09:06:06.155Z,15.47
2023-11-23T09:08:33.266Z,14.00
2023-11-23T09:11:00.059Z,13.40
2023-11-23T09:13:27.733Z,13.63
2023-11-23T09:15:57.653Z,12.53
2023-11-23T09:18:24.474Z,14.07
2023-11-23T09:20:52.326Z,12.43
2023-11-23T09:23:19.443Z,12.00
2023-11-23T09:25:46.955Z,11.87
2023-11-23T09:28:14.390Z,12.57
2023-11-23T09:30:42.276Z,12.20
2023-11-23T09:33:10.876Z,12.70
2023-11-23T09:35:40.380Z,12.87
2023-11-23T09:38:07.841Z,12.07
2023-11-23T09:40:35.212Z,13.00
2023-11-23T09:43:02.454Z,13.53
2023-11-23T09:45:30.596Z,12.33
2023-11-23T09:47:58.879Z,12.93
2023-11-23T09:50:28.720Z,12.30
2023-11-23T09:52:57.137Z,12.30
2023-11-23T09:55:24.383Z,12.50
2023-11-23T09:57:51.518Z,13.87
2023-11-23T10:00:20.026Z,12.97
2023-11-23T10:02:51.488Z,12.63
2023-11-23T10:05:19.173Z,12.60
2023-11-23T10:07:48.347Z,13.23
2023-11-23T10:10:16.273Z,14.00
2023-11-23T10:12:46.038Z,13.07
2023-11-23T10:15:13.584Z,13.10
2023-11-23T10:17:41.405Z,13.40
2023-11-23T10:20:13.925Z,12.20
2023-11-23T10:22:48.542Z,13.30
2023-11-23T10:25:34.213Z,12.17
2023-11-23T10:28:01.827Z,12.53
2023-11-23T10:30:30.770Z,12.97
2023-11-23T10:32:59.013Z,12.30
2023-11-23T10:35:42.624Z,11.10
2023-11-23T10:38:09.923Z,10.93
2023-11-23T10:40:37.118Z,11.67
2023-11-23T10:43:04.954Z,11.80
2023-11-23T10:45:34.771Z,13.00
2023-11-23T10:48:03.886Z,11.33
2023-11-23T10:50:32.664Z,11.37
2023-11-23T10:53:02.003Z,11.37
2023-11-23T10:55:30.001Z,10.57
2023-11-23T10:58:16.554Z,10.10
2023-11-23T11:00:44.123Z,9.67
2023-11-23T11:03:12.756Z,10.70
2023-11-23T11:05:47.589Z,10.00
2023-11-23T11:08:19.638Z,9.70
2023-11-23T11:10:51.415Z,10.50
2023-11-23T11:13:22.112Z,10.83
2023-11-23T11:15:56.516Z,10.70
2023-11-23T11:18:29.245Z,10.47
2023-11-23T11:21:05.145Z,11.10
2023-11-23T11:23:39.077Z,10.07
2023-11-23T11:26:22.737Z,9.83
2023-11-23T11:28:57.631Z,10.80
2023-11-23T11:31:32.940Z,10.33
2023-11-23T11:34:00.505Z,9.87
2023-11-23T11:36:32.293Z,10.20
2023-11-23T11:39:00.868Z,9.57
2023-11-23T11:41:35.309Z,10.40
2023-11-23T11:44:05.144Z,8.67
2023-11-23T11:46:32.993Z,10.07
2023-11-23T11:49:01.798Z,9.93
2023-11-23T11:51:30.106Z,9.30
2023-11-23T11:53:57.730Z,9.40
2023-11-23T11:56:24.855Z,9.63
2023-11-23T11:58:52.138Z,9.70
2023-11-23T12:01:19.557Z,10.50
2023-11-23T12:03:50.554Z,9.93
2023-11-23T12:06:21.564Z,9.40
2023-11-23T12:08:50.895Z,10.67
2023-11-23T12:11:27.801Z,8.83
2023-11-23T12:13:56.855Z,10.03
2023-11-23T12:16:33.308Z,9.30
2023-11-23T12:19:00.485Z,9.47
2023-11-23T12:21:28.509Z,10.17
2023-11-23T12:23:56.507Z,10.07
2023-11-23T12:26:24.545Z,9.63
2023-11-23T12:28:51.694Z,10.27
2023-11-23T12:31:19.143Z,10.47
2023-11-23T12:33:45.911Z,10.13
2023-11-23T12:36:13.586Z,10.00
2023-11-23T12:38:41.700Z,9.37
2023-11-23T12:41:11.842Z,10.67
2023-11-23T12:43:41.890Z,9.37
2023-11-23T12:46:09.165Z,9.40
2023-11-23T12:48:36.398Z,9.53
2023-11-23T12:51:05.083Z,10.30
2023-11-23T12:53:32.237Z,9.93
2023-11-23T12:55:59.437Z,10.17
2023-11-23T12:58:26.591Z,10.10
2023-11-23T13:00:53.651Z,10.47
2023-11-23T13:03:22.623Z,10.63
2023-11-23T13:05:53.981Z,9.17
2023-11-23T13:08:21.097Z,9.47
2023-11-23T13:10:48.400Z,9.53
2023-11-23T13:13:15.630Z,9.73
2023-11-23T13:15:42.856Z,9.73
2023-11-23T13:18:10.095Z,10.07
2023-11-23T13:20:37.317Z,9.13
2023-11-23T13:23:04.596Z,9.80
2023-11-23T13:25:34.614Z,9.90
2023-11-23T13:28:03.843Z,9.40
2023-11-23T13:30:32.815Z,9.63
2023-11-23T13:33:05.680Z,9.00
2023-11-23T13:35:34.402Z,8.87
2023-11-23T13:38:01.496Z,9.73
2023-11-23T13:40:30.101Z,9.73
2023-11-23T13:42:57.297Z,8.67
2023-11-23T13:45:24.465Z,7.80
2023-11-23T13:47:52.605Z,7.83
2023-11-23T13:50:21.232Z,7.83
2023-11-23T13:52:50.060Z,8.67
2023-11-23T13:55:17.285Z,8.60
2023-11-23T13:57:44.419Z,7.87
2023-11-23T14:00:21.106Z,7.60
2023-11-23T14:02:53.637Z,7.70
2023-11-23T14:05:20.997Z,7.07
2023-11-23T14:07:54.819Z,6.67
2023-11-23T14:10:22.695Z,7.17
2023-11-23T14:12:49.787Z,5.90
2023-11-23T14:15:20.218Z,5.90
2023-11-23T14:17:47.867Z,5.80
2023-11-23T14:20:17.931Z,5.90
2023-11-23T14:22:50.287Z,5.07
2023-11-23T14:25:17.946Z,4.97
2023-11-23T14:27:45.778Z,5.60
2023-11-23T14:30:13.442Z,5.63
2023-11-23T14:32:44.184Z,5.43
2023-11-23T14:35:19.082Z,6.17
2023-11-23T14:37:46.282Z,5.37
2023-11-23T14:40:17.043Z,5.37
2023-11-23T14:42:55.645Z,5.70
2023-11-23T14:45:24.378Z,5.83
2023-11-23T14:47:53.360Z,6.03
2023-11-23T14:50:21.228Z,5.53
2023-11-23T14:52:48.570Z,5.90
2023-11-23T14:55:15.819Z,4.70
2023-11-23T14:57:43.203Z,4.30
2023-11-23T15:00:10.912Z,4.83
2023-11-23T15:02:41.446Z,5.03
2023-11-23T15:05:13.738Z,4.23
2023-11-23T15:07:43.722Z,4.23
2023-11-23T15:10:16.075Z,4.47
2023-11-23T15:12:51.442Z,3.93
2023-11-23T15:15:20.003Z,3.43
2023-11-23T15:17:47.866Z,4.73
2023-11-23T15:20:15.047Z,3.40
2023-11-23T15:22:43.625Z,4.43
2023-11-23T15:25:14.105Z,3.87
2023-11-23T15:27:43.505Z,3.40
2023-11-23T15:30:12.132Z,3.30
2023-11-23T15:32:42.166Z,3.17
2023-11-23T15:35:15.753Z,3.60
2023-11-23T15:37:54.375Z,3.63
2023-11-23T15:40:23.277Z,3.20
2023-11-23T15:42:51.116Z,3.13
2023-11-23T15:45:18.754Z,4.37
2023-11-23T15:47:45.970Z,6.70
2023-11-23T15:50:13.166Z,6.77
2023-11-23T15:52:40.396Z,4.73
2023-11-23T15:55:09.596Z,4.37
2023-11-23T15:57:37.703Z,3.87
2023-11-23T16:00:07.943Z,4.13
2023-11-23T16:02:41.965Z,3.40
2023-11-23T16:05:14.208Z,3.90
2023-11-23T16:07:41.428Z,4.83
2023-11-23T16:10:10.680Z,6.13
2023-11-23T16:12:38.047Z,4.83
2023-11-23T16:15:08.065Z,4.23
2023-11-23T16:17:35.407Z,3.67
2023-11-23T16:20:02.621Z,4.10
2023-11-23T16:22:30.575Z,4.40
2023-11-23T16:24:57.700Z,5.20
2023-11-23T16:27:25.328Z,5.03
2023-11-23T16:29:52.485Z,5.53
2023-11-23T16:32:19.630Z,6.73
2023-11-23T16:34:48.659Z,5.10
2023-11-23T16:37:15.799Z,6.10
2023-11-23T16:39:42.968Z,5.50
2023-11-23T16:42:10.125Z,5.93
2023-11-23T16:44:37.497Z,5.60
2023-11-23T16:47:06.726Z,5.93
2023-11-23T16:49:34.605Z,5.93
2023-11-23T16:52:01.865Z,5.37
2023-11-23T16:54:30.081Z,5.40
2023-11-23T16:56:57.227Z,5.53
2023-11-23T16:59:24.311Z,6.10
2023-11-23T17:01:51.590Z,6.20
2023-11-23T17:04:19.175Z,6.50
2023-11-23T17:06:46.424Z,6.20
2023-11-23T17:09:14.905Z,6.53
2023-11-23T17:11:42.076Z,6.80
2023-11-23T17:14:12.519Z,6.30
2023-11-23T17:16:40.378Z,5.83
2023-11-23T17:19:08.208Z,5.93
2023-11-23T17:21:35.412Z,7.53
2023-11-23T17:24:02.627Z,6.50
2023-11-23T17:26:30.978Z,6.40
2023-11-23T17:28:58.702Z,6.57
2023-11-23T17:31:26.331Z,6.00
2023-11-23T17:33:53.532Z,6.43
2023-11-23T17:36:21.609Z,6.63
2023-11-23T17:38:49.265Z,6.60
2023-11-23T17:41:17.432Z,7.37
2023-11-23T17:43:47.730Z,6.90
2023-11-23T17:46:15.311Z,7.93
2023-11-23T17:48:42.555Z,7.60
2023-11-23T17:51:11.285Z,8.23
2023-11-23T17:53:38.476Z,7.83
2023-11-23T17:56:08.112Z,8.10
2023-11-23T17:58:35.404Z,7.63
2023-11-23T18:01:03.622Z,8.40
2023-11-23T18:03:31.829Z,7.77
2023-11-23T18:05:59.553Z,7.87
2023-11-23T18:08:27.594Z,8.63
2023-11-23T18:10:54.966Z,12.20
2023-11-23T18:13:22.166Z,11.53
2023-11-23T18:15:49.282Z,10.77
2023-11-23T18:18:23.766Z,9.40
2023-11-23T18:20:52.981Z,9.20
2023-11-23T18:23:20.938Z,8.47
2023-11-23T18:25:49.780Z,8.60
2023-11-23T18:28:18.752Z,7.30
2023-11-23T18:30:45.977Z,8.03
2023-11-23T18:33:13.210Z,7.83
2023-11-23T18:35:40.344Z,7.17
2023-11-23T18:38:07.495Z,7.10
2023-11-23T18:40:34.865Z,7.50
2023-11-23T18:43:03.990Z,7.17
2023-11-23T18:45:33.930Z,5.60
2023-11-23T18:48:01.595Z,6.40
2023-11-23T18:50:28.772Z,6.03
2023-11-23T18:52:56.764Z,6.30
2023-11-23T18:55:25.327Z,5.80
2023-11-23T18:57:53.888Z,6.03
2023-11-23T19:00:22.488Z,6.40
2023-11-23T19:02:51.134Z,5.70
2023-11-23T19:05:19.686Z,6.77
2023-11-23T19:07:48.820Z,5.97
2023-11-23T19:10:17.237Z,6.60
2023-11-23T19:12:51.544Z,6.23
2023-11-23T19:15:20.346Z,6.13
2023-11-23T19:17:47.343Z,6.50
2023-11-23T19:20:16.196Z,5.83
2023-11-23T19:22:43.129Z,6.10
2023-11-23T19:25:11.702Z,6.23
2023-11-23T19:27:39.656Z,7.47
2023-11-23T19:30:08.774Z,6.30
2023-11-23T19:32:36.083Z,7.13
2023-11-23T19:35:03.116Z,6.67
2023-11-23T19:37:30.342Z,6.77
2023-11-23T19:39:59.281Z,6.07
2023-11-23T19:42:27.314Z,6.80
2023-11-23T19:44:54.845Z,7.53
2023-11-23T19:47:22.698Z,6.77
2023-11-23T19:49:52.070Z,9.60
2023-11-23T19:52:24.429Z,7.70
2023-11-23T19:54:54.882Z,5.83
2023-11-23T19:57:26.471Z,6.23
2023-11-23T19:59:55.571Z,5.27
2023-11-23T20:02:23.038Z,5.40
2023-11-23T20:04:53.418Z,5.93
2023-11-23T20:07:20.633Z,6.60
2023-11-23T20:09:50.199Z,5.20
2023-11-23T20:12:18.109Z,3.97
2023-11-23T20:14:45.332Z,3.13
2023-11-23T20:17:12.569Z,5.00
2023-11-23T20:19:41.911Z,4.10
2023-11-23T20:22:09.112Z,2.87
2023-11-23T20:24:37.407Z,2.60
2023-11-23T20:27:04.605Z,3.23
2023-11-23T20:29:31.997Z,2.17
2023-11-23T20:31:59.112Z,1.70
2023-11-23T20:34:30.569Z,2.93
2023-11-23T20:37:00.127Z,2.70
2023-11-23T20:39:29.273Z,3.07
2023-11-23T20:41:56.453Z,2.40
2023-11-23T20:44:25.778Z,2.37
2023-11-23T20:46:54.239Z,1.80
2023-11-23T20:49:24.903Z,2.90
2023-11-23T20:51:55.641Z,2.07
2023-11-23T20:54:26.028Z,2.57
2023-11-23T20:57:01.026Z,2.20
2023-11-23T20:59:30.387Z,2.00
2023-11-23T21:01:58.531Z,2.53
2023-11-23T21:04:30.213Z,2.73
2023-11-23T21:07:02.276Z,2.93
2023-11-23T21:09:32.656Z,2.40
2023-11-23T21:12:03.326Z,2.47
2023-11-23T21:14:35.652Z,2.60
2023-11-23T21:17:07.116Z,2.30
2023-11-23T21:19:38.457Z,2.13
2023-11-23T21:22:05.455Z,2.13
2023-11-23T21:24:34.638Z,2.77
2023-11-23T21:27:01.745Z,2.40
2023-11-23T21:29:30.957Z,2.53
2023-11-23T21:32:00.347Z,2.63
2023-11-23T21:34:29.611Z,2.60
2023-11-23T21:36:56.995Z,2.87
2023-11-23T21:39:27.050Z,2.33
2023-11-23T21:41:56.773Z,2.53
2023-11-23T21:44:27.107Z,2.47
2023-11-23T21:46:58.647Z,2.43
2023-11-23T21:49:28.135Z,2.30
2023-11-23T21:51:56.583Z,3.47
2023-11-23T21:54:23.818Z,3.47
2023-11-23T21:56:50.950Z,3.20
2023-11-23T21:59:18.064Z,3.43
2023-11-23T22:01:49.336Z,2.57
2023-11-23T22:04:20.280Z,2.60
2023-11-23T22:06:53.724Z,2.80
2023-11-23T22:09:26.617Z,3.17
2023-11-23T22:11:56.967Z,3.30
2023-11-23T22:14:26.761Z,4.33
2023-11-23T22:16:55.273Z,2.97
2023-11-23T22:19:28.104Z,3.93
2023-11-23T22:22:04.181Z,3.33
2023-11-23T22:24:41.043Z,4.10
2023-11-23T22:27:14.085Z,4.53
2023-11-23T22:29:43.756Z,3.83
2023-11-23T22:32:10.993Z,3.93
2023-11-23T22:34:38.282Z,3.30
2023-11-23T22:37:05.705Z,2.90
2023-11-23T22:39:34.278Z,3.80
2023-11-23T22:42:01.671Z,2.97
2023-11-23T22:44:28.962Z,3.37
2023-11-23T22:46:57.411Z,2.90
2023-11-23T22:49:25.686Z,2.53
2023-11-23T22:51:52.759Z,3.40
2023-11-23T22:54:19.922Z,2.70
2023-11-23T22:56:47.392Z,3.00
2023-11-23T22:59:14.501Z,2.73
2023-11-23T23:01:43.796Z,2.47
2023-11-23T23:04:14.705Z,1.83
2023-11-23T23:06:45.617Z,1.97
2023-11-23T23:09:13.107Z,2.60
2023-11-23T23:11:40.394Z,1.80
2023-11-23T23:14:07.876Z,1.90
2023-11-23T23:16:36.265Z,1.70
2023-11-23T23:19:03.437Z,1.90
2023-11-23T23:21:32.583Z,1.80
2023-11-23T23:24:00.026Z,2.20
2023-11-23T23:26:29.352Z,6.63
2023-11-23T23:28:56.832Z,5.40
2023-11-23T23:31:24.025Z,4.33
2023-11-23T23:33:51.254Z,3.67
2023-11-23T23:36:18.447Z,3.70
2023-11-23T23:38:45.653Z,2.20
2023-11-23T23:41:14.464Z,2.30
2023-11-23T23:43:42.945Z,1.83
2023-11-23T23:46:11.383Z,2.00
2023-11-23T23:48:38.598Z,1.80
2023-11-23T23:51:05.957Z,2.20
2023-11-23T23:53:33.252Z,2.40
2023-11-23T23:56:00.570Z,1.90
2023-11-23T23:58:27.696Z,2.10
